Time;durP1;ratioP1;P1;durP2;ratioP2;P2;SDS_P1;SDS_P2;PMS_P1;PMS_P2;Temp;Humidity;BMP_temperature;BMP_pressure;BME280_temperature;BME280_humidity;BME280_pressure;Samples;Min_cycle;Max_cycle;Signal;HPM_P1;HPM_P2
2022/12/11 00:00:39;;;;;;;32.63;17.77;;;-0.10;36.40;;;;;;4984240;28;20844;-62
2022/12/11 00:03:07;;;;;;;30.60;17.47;;;0.00;36.40;;;;;;4989918;28;20460;-62
2022/12/11 00:05:34;;;;;;;28.87;16.03;;;0.00;36.40;;;;;;4982611;28;20472;-62
2022/12/11 00:08:01;;;;;;;27.00;16.20;;;0.00;36.40;;;;;;4988030;28;20491;-62
2022/12/11 00:10:27;;;;;;;26.33;16.17;;;0.00;36.40;;;;;;4983792;28;20870;-62
2022/12/11 00:12:54;;;;;;;31.33;17.07;;;0.00;36.30;;;;;;4982188;28;20457;-62
2022/12/11 00:15:21;;;;;;;31.00;16.57;;;0.10;36.20;;;;;;4983997;28;20489;-62
2022/12/11 00:17:48;;;;;;;31.07;17.50;;;0.10;36.20;;;;;;4979584;28;20487;-62
2022/12/11 00:20:16;;;;;;;27.27;16.40;;;0.10;36.20;;;;;;4988568;28;20448;-62
2022/12/11 00:22:43;;;;;;;27.40;14.97;;;0.20;36.70;;;;;;4987730;28;20459;-62
2022/12/11 00:25:09;;;;;;;24.23;15.10;;;0.20;36.00;;;;;;4979759;28;20468;-62
2022/12/11 00:27:36;;;;;;;26.03;15.10;;;0.20;36.00;;;;;;4987122;28;21033;-62
2022/12/11 00:30:04;;;;;;;26.77;14.67;;;0.30;36.10;;;;;;4984384;28;20457;-62
2022/12/11 00:32:31;;;;;;;27.80;16.63;;;0.20;36.10;;;;;;4989453;28;20476;-62
2022/12/11 00:34:58;;;;;;;25.60;15.20;;;0.30;36.00;;;;;;4985543;28;20503;-62
2022/12/11 00:37:26;;;;;;;28.70;17.03;;;0.80;36.10;;;;;;4982609;28;20496;-62
2022/12/11 00:39:53;;;;;;;24.77;16.60;;;0.70;36.10;;;;;;4985891;28;20469;-62
2022/12/11 00:42:20;;;;;;;25.43;15.60;;;0.40;35.90;;;;;;4989147;28;20489;-61
2022/12/11 00:44:46;;;;;;;26.90;15.73;;;0.40;35.90;;;;;;4984915;28;20461;-62
2022/12/11 00:47:13;;;;;;;26.40;14.80;;;0.40;36.00;;;;;;4987431;28;21206;-62
2022/12/11 00:49:40;;;;;;;27.53;15.20;;;0.40;35.90;;;;;;4986286;28;20461;-62
2022/12/11 00:52:07;;;;;;;27.93;16.30;;;0.40;35.80;;;;;;4988115;28;20475;-62
2022/12/11 00:54:35;;;;;;;24.67;14.70;;;0.50;35.80;;;;;;4983237;28;20473;-62
2022/12/11 00:57:02;;;;;;;26.97;15.70;;;0.50;36.10;;;;;;4986271;28;20488;-62
2022/12/11 00:59:29;;;;;;;24.00;14.30;;;0.50;35.60;;;;;;4988526;28;20461;-62
2022/12/11 01:01:55;;;;;;;26.07;14.30;;;0.60;35.40;;;;;;4984325;28;23149;-62
2022/12/11 01:04:22;;;;;;;27.60;16.43;;;0.60;35.50;;;;;;4987453;28;20452;-62
2022/12/11 01:06:49;;;;;;;23.90;15.10;;;0.60;35.60;;;;;;4986744;28;20527;-62
2022/12/11 01:12:01;;;;;;;24.70;13.43;;;0.60;36.20;;;;;;4981886;28;20459;-62
2022/12/11 01:14:28;;;;;;;22.93;14.03;;;0.60;35.50;;;;;;4982625;28;20500;-62
2022/12/11 01:16:55;;;;;;;26.63;15.23;;;0.60;35.60;;;;;;4982488;28;20508;-62
2022/12/11 01:19:21;;;;;;;25.10;13.77;;;0.60;35.50;;;;;;4985947;28;20468;-62
2022/12/11 01:21:48;;;;;;;23.37;14.50;;;0.60;35.60;;;;;;4985178;28;20954;-61
2022/12/11 01:24:15;;;;;;;29.07;16.30;;;0.60;35.60;;;;;;4987290;28;20469;-62
2022/12/11 01:26:42;;;;;;;25.67;14.60;;;0.70;35.70;;;;;;4984273;28;20480;-62
2022/12/11 01:29:10;;;;;;;23.53;13.80;;;0.60;35.60;;;;;;4980826;28;20460;-62
2022/12/11 01:31:37;;;;;;;26.20;15.00;;;0.60;35.50;;;;;;4985985;28;20565;-62
2022/12/11 01:34:04;;;;;;;26.87;14.97;;;0.60;35.50;;;;;;4978080;28;20576;-61
2022/12/11 01:36:31;;;;;;;26.90;16.97;;;0.60;35.60;;;;;;4982921;28;20491;-61
2022/12/11 01:38:57;;;;;;;29.27;16.73;;;0.60;35.60;;;;;;4980761;28;20496;-61
2022/12/11 01:41:24;;;;;;;26.03;15.40;;;0.60;35.60;;;;;;4985062;28;20464;-61
2022/12/11 01:44:04;;;;;;;24.87;14.90;;;0.60;35.60;;;;;;4983247;28;21152;-62
2022/12/11 01:46:33;;;;;;;26.97;16.30;;;0.60;35.70;;;;;;4981018;28;20489;-61
2022/12/11 01:49:02;;;;;;;28.00;16.30;;;0.50;35.70;;;;;;4984200;28;20483;-62
2022/12/11 01:51:31;;;;;;;29.90;16.57;;;0.50;35.70;;;;;;4988174;28;20544;-62
2022/12/11 01:54:01;;;;;;;23.40;13.70;;;0.60;35.80;;;;;;4982902;28;20468;-62
2022/12/11 01:56:32;;;;;;;21.63;14.90;;;0.60;35.60;;;;;;4978620;28;20466;-62
2022/12/11 01:59:05;;;;;;;28.70;15.80;;;0.60;35.40;;;;;;4983367;28;20465;-62
2022/12/11 02:01:39;;;;;;;29.30;15.90;;;0.60;35.30;;;;;;4982074;28;20480;-62
2022/12/11 02:04:08;;;;;;;28.30;16.20;;;0.60;35.30;;;;;;4983023;28;20468;-62
2022/12/11 02:06:37;;;;;;;26.50;16.87;;;0.60;35.30;;;;;;4985783;28;20484;-62
2022/12/11 02:09:07;;;;;;;27.83;15.70;;;0.60;35.30;;;;;;4985101;28;20982;-62
2022/12/11 02:11:40;;;;;;;26.00;15.43;;;0.60;35.30;;;;;;4977002;28;20896;-61
2022/12/11 02:14:17;;;;;;;28.10;16.50;;;0.50;35.30;;;;;;4981590;28;21016;-61
2022/12/11 02:16:50;;;;;;;25.87;16.10;;;0.50;35.30;;;;;;4983301;28;20999;-62
2022/12/11 02:19:30;;;;;;;23.87;13.80;;;0.60;35.20;;;;;;4979461;28;20456;-61
2022/12/11 02:22:00;;;;;;;27.17;16.50;;;0.60;35.20;;;;;;4985532;28;20860;-62
2022/12/11 02:24:49;;;;;;;23.17;14.50;;;0.70;35.00;;;;;;4984107;28;20457;-62
2022/12/11 02:27:26;;;;;;;25.73;14.33;;;0.70;34.90;;;;;;4985990;28;20853;-61
2022/12/11 02:30:01;;;;;;;23.97;14.60;;;0.70;34.70;;;;;;4984880;28;20468;-61
2022/12/11 02:32:35;;;;;;;28.57;16.13;;;0.80;34.50;;;;;;4984485;28;20991;-61
2022/12/11 02:35:09;;;;;;;23.23;14.07;;;0.80;35.20;;;;;;4986171;28;20826;-62
2022/12/11 02:37:37;;;;;;;26.10;16.43;;;0.80;34.10;;;;;;4986102;28;20488;-61
2022/12/11 02:40:08;;;;;;;24.17;15.47;;;0.80;34.20;;;;;;4983917;28;20829;-61
2022/12/11 02:42:38;;;;;;;25.00;14.90;;;0.80;34.10;;;;;;4985515;28;20467;-61
2022/12/11 02:45:09;;;;;;;23.17;14.40;;;0.90;34.70;;;;;;4982281;28;20537;-62
2022/12/11 02:47:37;;;;;;;24.90;14.53;;;0.80;34.20;;;;;;4988626;28;20490;-61
2022/12/11 02:50:10;;;;;;;28.57;16.17;;;0.80;34.20;;;;;;4982953;28;20464;-61
2022/12/11 02:52:39;;;;;;;27.93;15.70;;;0.80;34.50;;;;;;4988127;28;20461;-61
2022/12/11 02:55:08;;;;;;;28.00;14.83;;;0.70;34.50;;;;;;4989298;28;20804;-62
2022/12/11 02:57:39;;;;;;;30.30;17.63;;;0.70;34.50;;;;;;4985289;28;20485;-61
2022/12/11 03:00:09;;;;;;;30.83;15.80;;;0.70;34.50;;;;;;4981297;28;20467;-61
2022/12/11 03:02:37;;;;;;;23.47;14.77;;;0.70;35.10;;;;;;4981773;28;20479;-62
2022/12/11 03:05:04;;;;;;;24.57;14.70;;;0.70;34.50;;;;;;4985626;28;20459;-62
2022/12/11 03:07:35;;;;;;;24.37;14.90;;;0.70;34.50;;;;;;4984579;28;20495;-61
2022/12/11 03:10:02;;;;;;;27.57;15.93;;;0.70;34.50;;;;;;4989692;28;21000;-62
2022/12/11 03:12:32;;;;;;;25.17;16.03;;;0.80;33.60;;;;;;4988109;28;20887;-62
2022/12/11 03:15:02;;;;;;;23.90;14.90;;;0.70;33.90;;;;;;4986241;28;20480;-61
2022/12/11 03:17:38;;;;;;;26.77;15.33;;;0.70;33.80;;;;;;4983717;28;20491;-61
2022/12/11 03:20:12;;;;;;;23.97;13.53;;;0.70;34.00;;;;;;4989591;28;20464;-60
2022/12/11 03:22:43;;;;;;;25.50;15.10;;;0.60;34.10;;;;;;4984087;28;20464;-60
2022/12/11 03:25:16;;;;;;;24.37;15.80;;;0.60;34.10;;;;;;4987101;28;20974;-60
2022/12/11 03:27:50;;;;;;;26.47;16.57;;;0.60;34.20;;;;;;4987489;28;20479;-60
2022/12/11 03:30:21;;;;;;;24.43;15.03;;;0.50;34.20;;;;;;4986242;28;20452;-61
2022/12/11 03:32:53;;;;;;;22.87;14.57;;;0.50;34.30;;;;;;4979217;28;20634;-60
2022/12/11 03:35:24;;;;;;;31.30;15.90;;;0.50;34.40;;;;;;4987628;28;20491;-60
2022/12/11 03:37:52;;;;;;;24.40;13.73;;;0.50;34.40;;;;;;4986354;28;20493;-60
2022/12/11 03:40:21;;;;;;;25.90;15.43;;;0.50;34.50;;;;;;4988548;28;20468;-61
2022/12/11 03:42:51;;;;;;;27.93;16.03;;;0.50;34.30;;;;;;4977658;28;20465;-62
2022/12/11 03:45:20;;;;;;;25.17;14.03;;;0.60;34.00;;;;;;4986311;28;20461;-61
2022/12/11 03:47:50;;;;;;;25.33;14.50;;;0.50;34.20;;;;;;4981468;28;20490;-62
2022/12/11 03:50:18;;;;;;;21.40;13.57;;;0.60;34.30;;;;;;4987054;28;20456;-62
2022/12/11 03:52:47;;;;;;;25.90;14.90;;;0.60;34.20;;;;;;4987792;28;20468;-60
2022/12/11 03:55:16;;;;;;;26.80;15.47;;;0.60;34.20;;;;;;4990007;28;20480;-60
2022/12/11 03:57:43;;;;;;;24.60;13.33;;;0.60;34.20;;;;;;4987472;28;20488;-60
2022/12/11 04:00:14;;;;;;;29.23;15.90;;;0.60;34.20;;;;;;4985901;28;20484;-60
2022/12/11 04:02:41;;;;;;;23.73;13.20;;;0.60;34.20;;;;;;4985650;28;20479;-62
2022/12/11 04:05:10;;;;;;;22.33;14.40;;;0.50;34.10;;;;;;4982131;28;20452;-60
2022/12/11 04:07:37;;;;;;;22.70;12.67;;;0.50;34.10;;;;;;4989159;28;20477;-60
2022/12/11 04:10:05;;;;;;;22.30;14.40;;;0.40;34.00;;;;;;4984002;28;20461;-62
2022/12/11 04:12:32;;;;;;;21.27;13.53;;;0.40;33.80;;;;;;4985706;28;20477;-60
2022/12/11 04:15:00;;;;;;;25.93;13.43;;;0.40;33.80;;;;;;4984250;28;21004;-62
2022/12/11 04:25:42;;;;;;;19.97;11.73;;;0.50;33.60;;;;;;4977099;28;20483;-60
2022/12/11 04:28:09;;;;;;;18.70;11.90;;;0.50;33.70;;;;;;4984493;28;20499;-60
2022/12/11 04:30:35;;;;;;;22.10;13.23;;;0.50;33.80;;;;;;4986048;28;20484;-60
2022/12/11 04:33:02;;;;;;;21.63;13.70;;;0.50;33.80;;;;;;4988074;28;20991;-60
2022/12/11 04:35:30;;;;;;;19.40;11.83;;;0.40;33.70;;;;;;4986496;28;20490;-61
2022/12/11 04:37:57;;;;;;;23.67;13.83;;;0.50;33.50;;;;;;4988338;28;20857;-60
2022/12/11 04:40:25;;;;;;;19.50;12.17;;;0.50;33.50;;;;;;4986798;28;20469;-61
2022/12/11 04:42:51;;;;;;;21.53;13.93;;;0.40;33.50;;;;;;4985098;28;20461;-60
2022/12/11 04:45:18;;;;;;;22.07;13.60;;;0.40;33.50;;;;;;4987283;28;20444;-60
2022/12/11 04:47:45;;;;;;;23.30;13.47;;;0.40;33.50;;;;;;4983480;28;20822;-60
2022/12/11 04:50:13;;;;;;;21.23;12.80;;;0.30;33.40;;;;;;4977930;28;20464;-61
2022/12/11 04:52:42;;;;;;;23.80;13.43;;;0.20;33.30;;;;;;4983916;28;20472;-62
2022/12/11 04:55:10;;;;;;;24.43;13.27;;;0.20;33.40;;;;;;4982644;28;20505;-63
2022/12/11 04:57:37;;;;;;;22.37;13.73;;;0.10;33.30;;;;;;4987011;28;20876;-62
2022/12/11 05:00:06;;;;;;;19.00;12.50;;;0.00;33.30;;;;;;4980818;28;20473;-60
2022/12/11 05:02:35;;;;;;;24.90;13.60;;;-0.10;33.30;;;;;;4978766;28;20488;-62
2022/12/11 05:05:03;;;;;;;20.43;13.07;;;-0.10;33.20;;;;;;4986257;28;20464;-60
2022/12/11 05:07:29;;;;;;;22.47;13.20;;;-0.20;32.90;;;;;;4984380;28;21033;-63
2022/12/11 05:09:58;;;;;;;22.07;13.37;;;-0.30;33.00;;;;;;4987098;28;20453;-60
2022/12/11 05:12:24;;;;;;;20.90;12.60;;;-0.40;33.00;;;;;;4986595;28;20454;-61
2022/12/11 05:14:52;;;;;;;21.70;13.50;;;-0.50;33.00;;;;;;4978089;28;20461;-60
2022/12/11 05:17:20;;;;;;;21.50;13.90;;;-0.60;33.10;;;;;;4980114;28;20484;-60
2022/12/11 05:19:48;;;;;;;19.87;13.03;;;-0.60;33.10;;;;;;4988327;28;20530;-60
2022/12/11 05:22:15;;;;;;;26.00;13.40;;;-0.80;33.10;;;;;;4979305;28;21047;-60
2022/12/11 05:24:42;;;;;;;25.20;13.97;;;-0.80;33.20;;;;;;4982172;28;20995;-60
2022/12/11 05:27:10;;;;;;;24.20;13.93;;;-0.90;33.40;;;;;;4986960;28;20477;-60
2022/12/11 05:29:37;;;;;;;21.70;13.50;;;-1.00;33.60;;;;;;4981790;28;20968;-60
2022/12/11 05:32:04;;;;;;;22.90;13.50;;;-1.00;33.90;;;;;;4986037;28;20556;-63
2022/12/11 05:34:31;;;;;;;21.77;14.37;;;-1.00;33.70;;;;;;4983482;28;20463;-61
2022/12/11 05:36:58;;;;;;;18.50;11.30;;;-1.00;33.80;;;;;;4986985;28;21094;-60
2022/12/11 05:39:25;;;;;;;21.50;12.53;;;-1.10;33.80;;;;;;4983677;28;20461;-60
2022/12/11 05:41:52;;;;;;;20.70;11.80;;;-1.20;33.50;;;;;;4982299;28;20815;-62
2022/12/11 05:44:20;;;;;;;17.03;10.27;;;-1.30;33.40;;;;;;4984791;28;20457;-60
2022/12/11 05:46:46;;;;;;;19.17;11.40;;;-1.30;33.20;;;;;;4987117;28;20476;-60
2022/12/11 05:49:13;;;;;;;22.07;12.43;;;-1.40;33.10;;;;;;4979037;28;20956;-62
2022/12/11 05:51:42;;;;;;;19.97;12.50;;;-1.40;33.20;;;;;;4979837;28;20467;-61
2022/12/11 05:54:09;;;;;;;21.80;11.90;;;-1.50;33.30;;;;;;4979046;28;20522;-60
2022/12/11 05:56:37;;;;;;;19.23;12.07;;;-1.50;33.50;;;;;;4983470;28;20492;-60
2022/12/11 05:59:05;;;;;;;21.30;11.50;;;-1.60;33.50;;;;;;4982716;28;20469;-60
2022/12/11 06:01:35;;;;;;;22.57;13.20;;;-1.60;33.70;;;;;;4986950;28;20465;-60
2022/12/11 06:04:04;;;;;;;21.80;12.60;;;-1.60;33.70;;;;;;4985455;28;20460;-61
2022/12/11 06:06:32;;;;;;;20.27;11.67;;;-1.70;33.90;;;;;;4977825;28;20481;-60
2022/12/11 06:09:00;;;;;;;18.10;11.20;;;-1.70;34.00;;;;;;4977447;28;20460;-62
2022/12/11 06:11:29;;;;;;;24.50;13.20;;;-1.80;34.00;;;;;;4987188;28;20515;-60
2022/12/11 06:13:56;;;;;;;22.40;12.33;;;-1.80;34.10;;;;;;4976764;28;20515;-63
2022/12/11 06:16:23;;;;;;;21.80;11.80;;;-1.90;34.20;;;;;;4985163;28;20515;-62
2022/12/11 06:18:52;;;;;;;21.30;13.77;;;-1.90;34.30;;;;;;4983140;28;20471;-60
2022/12/11 06:21:21;;;;;;;27.90;12.60;;;-1.90;34.50;;;;;;4984067;28;20578;-62
2022/12/11 06:23:49;;;;;;;21.10;11.70;;;-1.90;34.90;;;;;;4985584;28;20461;-62
2022/12/11 06:26:18;;;;;;;21.60;12.70;;;-1.90;34.90;;;;;;4989765;28;20459;-61
2022/12/11 06:28:45;;;;;;;24.80;12.73;;;-1.90;34.90;;;;;;4980341;28;20469;-60
2022/12/11 06:31:12;;;;;;;26.93;13.80;;;-1.90;35.00;;;;;;4990258;28;20483;-60
2022/12/11 06:33:39;;;;;;;22.23;13.47;;;-2.00;35.10;;;;;;4989025;28;20466;-60
2022/12/11 06:36:11;;;;;;;25.23;12.93;;;-1.90;35.30;;;;;;4988666;28;20571;-60
2022/12/11 06:38:38;;;;;;;22.00;12.73;;;-2.00;35.20;;;;;;4988763;28;21008;-62
2022/12/11 06:41:07;;;;;;;21.37;13.40;;;-2.00;35.10;;;;;;4990042;28;20955;-60
2022/12/11 06:43:35;;;;;;;20.47;12.03;;;-2.00;35.00;;;;;;4989540;28;20456;-60
2022/12/11 06:46:04;;;;;;;21.20;12.80;;;-2.10;34.90;;;;;;4989113;28;20453;-60
2022/12/11 06:48:32;;;;;;;21.37;12.10;;;-2.10;35.30;;;;;;4986027;28;20481;-62
2022/12/11 06:50:58;;;;;;;23.53;13.30;;;-2.10;34.70;;;;;;4990052;28;20474;-62
2022/12/11 06:53:26;;;;;;;25.30;13.40;;;-2.10;34.60;;;;;;4987817;28;20452;-62
2022/12/11 06:55:53;;;;;;;18.53;12.37;;;-2.10;34.60;;;;;;4980215;28;20484;-62
2022/12/11 06:58:20;;;;;;;21.63;13.20;;;-2.20;34.40;;;;;;4980468;28;20480;-61
2022/12/11 07:00:47;;;;;;;22.40;13.67;;;-2.20;34.40;;;;;;4985829;28;20460;-62
2022/12/11 07:03:14;;;;;;;23.13;11.70;;;-2.20;34.30;;;;;;4991698;28;20461;-62
2022/12/11 07:05:40;;;;;;;23.17;13.30;;;-2.30;34.30;;;;;;4985812;28;20699;-63
2022/12/11 07:08:07;;;;;;;21.50;12.17;;;-2.30;34.40;;;;;;4990513;28;20481;-62
2022/12/11 07:10:35;;;;;;;17.73;11.17;;;-2.40;34.40;;;;;;4984523;28;20469;-62
2022/12/11 07:13:02;;;;;;;21.53;11.70;;;-2.40;34.40;;;;;;4981333;28;20465;-62
2022/12/11 07:15:29;;;;;;;23.67;12.93;;;-2.40;34.40;;;;;;4982327;28;20468;-62
2022/12/11 07:17:55;;;;;;;21.27;12.03;;;-2.50;34.40;;;;;;4982036;28;20488;-62
2022/12/11 07:20:22;;;;;;;19.20;12.77;;;-2.50;34.40;;;;;;4985205;28;20996;-61
2022/12/11 07:22:50;;;;;;;20.83;12.97;;;-2.50;34.50;;;;;;4986382;28;20462;-61
2022/12/11 07:25:17;;;;;;;23.00;13.47;;;-2.40;34.70;;;;;;4988882;28;20472;-61
2022/12/11 07:27:45;;;;;;;22.40;12.33;;;-2.40;34.80;;;;;;4984022;28;20511;-61
2022/12/11 07:30:13;;;;;;;17.33;10.63;;;-2.20;34.90;;;;;;4988833;28;20461;-64
2022/12/11 07:32:39;;;;;;;18.23;10.43;;;-2.20;34.80;;;;;;4988416;28;21029;-61
2022/12/11 07:35:07;;;;;;;20.33;13.07;;;-2.20;34.80;;;;;;4978643;28;20857;-61
2022/12/11 07:37:34;;;;;;;18.83;11.57;;;-2.00;33.50;;;;;;4982233;28;20511;-61
2022/12/11 07:40:00;;;;;;;21.00;11.30;;;-2.00;33.40;;;;;;4988792;28;20461;-61
2022/12/11 07:42:28;;;;;;;21.03;12.00;;;-1.90;33.50;;;;;;4976689;28;21048;-62
2022/12/11 07:44:56;;;;;;;21.47;12.57;;;-1.80;33.80;;;;;;4981655;28;20472;-62
2022/12/11 07:47:23;;;;;;;20.30;11.47;;;-1.70;33.70;;;;;;4987126;28;20576;-62
2022/12/11 07:49:50;;;;;;;19.07;11.53;;;-1.60;33.70;;;;;;4988184;28;20468;-60
2022/12/11 07:52:16;;;;;;;18.17;11.43;;;-1.40;33.70;;;;;;4986348;28;20876;-62
2022/12/11 07:54:43;;;;;;;19.30;12.37;;;-1.20;33.50;;;;;;4985251;28;20868;-62
2022/12/11 07:57:10;;;;;;;18.90;11.17;;;-1.00;33.30;;;;;;4979312;28;20539;-61
2022/12/11 07:59:37;;;;;;;17.70;11.10;;;-0.50;32.60;;;;;;4983210;28;20957;-61
2022/12/11 08:02:05;;;;;;;19.00;10.70;;;0.30;30.90;;;;;;4982168;28;20480;-62
2022/12/11 08:04:32;;;;;;;18.27;10.97;;;1.10;28.30;;;;;;4988915;28;20515;-62
2022/12/11 08:06:59;;;;;;;20.13;11.93;;;1.70;26.60;;;;;;4985205;28;20560;-62
2022/12/11 08:09:25;;;;;;;19.20;11.80;;;2.10;24.90;;;;;;4986825;28;20465;-61
2022/12/11 08:11:52;;;;;;;20.20;12.97;;;2.90;22.20;;;;;;4986697;28;20460;-62
2022/12/11 08:14:20;;;;;;;19.30;11.77;;;3.60;21.30;;;;;;4986468;28;20484;-62
2022/12/11 08:16:47;;;;;;;18.00;11.87;;;4.20;19.90;;;;;;4985633;28;20493;-62
2022/12/11 08:19:15;;;;;;;15.40;10.10;;;4.70;19.50;;;;;;4987463;28;20472;-62
2022/12/11 08:21:42;;;;;;;16.00;10.07;;;5.20;18.50;;;;;;4986680;28;20472;-62
2022/12/11 08:24:09;;;;;;;15.40;10.43;;;5.40;16.40;;;;;;4977941;28;20469;-62
2022/12/11 08:26:36;;;;;;;14.33;9.90;;;5.60;15.90;;;;;;4981566;28;20698;-62
2022/12/11 08:29:04;;;;;;;16.03;9.43;;;6.00;15.90;;;;;;4985236;28;20471;-62
2022/12/11 08:31:32;;;;;;;14.83;9.90;;;6.20;15.50;;;;;;4982191;28;20480;-60
2022/12/11 08:33:59;;;;;;;18.27;11.60;;;6.50;15.00;;;;;;4988076;28;20964;-62
2022/12/11 08:36:27;;;;;;;23.07;14.00;;;6.50;13.20;;;;;;4977999;28;20485;-63
2022/12/11 08:38:55;;;;;;;16.23;10.10;;;6.50;13.60;;;;;;4986515;28;20480;-62
2022/12/11 08:41:24;;;;;;;16.20;10.97;;;6.60;12.70;;;;;;4982656;28;20985;-60
2022/12/11 08:43:53;;;;;;;14.33;9.60;;;6.60;12.00;;;;;;4979677;28;20468;-60
2022/12/11 08:46:22;;;;;;;16.10;10.53;;;6.70;12.10;;;;;;4982290;28;20453;-60
2022/12/11 08:48:48;;;;;;;14.33;10.20;;;6.70;11.20;;;;;;4976586;28;20477;-60
2022/12/11 08:51:18;;;;;;;16.00;10.77;;;6.50;11.70;;;;;;4983972;28;20480;-60
2022/12/11 08:53:47;;;;;;;16.80;9.80;;;6.40;11.80;;;;;;4986199;28;20474;-60
2022/12/11 08:56:15;;;;;;;13.77;10.13;;;6.40;12.20;;;;;;4986582;28;20516;-60
2022/12/11 08:58:43;;;;;;;15.33;11.40;;;6.50;13.50;;;;;;4977923;28;20838;-62
2022/12/11 09:01:12;;;;;;;15.20;10.20;;;6.70;12.80;;;;;;4983272;28;20476;-60
2022/12/11 09:03:40;;;;;;;15.00;10.60;;;6.80;12.40;;;;;;4983161;28;20457;-60
2022/12/11 09:06:08;;;;;;;14.67;9.93;;;6.80;11.90;;;;;;4981952;28;20456;-61
2022/12/11 09:08:35;;;;;;;15.90;10.00;;;6.80;12.10;;;;;;4984056;28;20482;-62
2022/12/11 09:11:08;;;;;;;16.67;10.43;;;6.90;11.90;;;;;;4986372;28;20465;-60
2022/12/11 09:13:35;;;;;;;15.30;9.73;;;7.00;11.20;;;;;;4984657;28;20471;-61
2022/12/11 09:16:05;;;;;;;12.90;8.70;;;7.10;10.50;;;;;;4981795;28;20900;-60
2022/12/11 09:18:31;;;;;;;15.97;10.67;;;7.20;9.80;;;;;;4977333;28;20542;-63
2022/12/11 09:20:59;;;;;;;15.00;10.03;;;7.40;9.90;;;;;;4980286;28;20469;-61
2022/12/11 09:23:26;;;;;;;14.90;10.03;;;7.40;10.00;;;;;;4981481;28;20468;-61
2022/12/11 09:25:53;;;;;;;15.37;10.90;;;7.40;10.00;;;;;;4978485;28;20912;-63
2022/12/11 09:28:22;;;;;;;15.83;9.90;;;7.40;10.10;;;;;;4980179;28;20497;-63
2022/12/11 09:30:48;;;;;;;15.37;10.60;;;7.40;10.40;;;;;;4982271;28;20568;-61
2022/12/11 09:33:15;;;;;;;14.70;10.90;;;7.50;10.50;;;;;;4983470;28;20473;-63
2022/12/11 09:35:43;;;;;;;14.50;10.43;;;7.60;10.30;;;;;;4977909;28;20468;-66
2022/12/11 09:38:10;;;;;;;15.77;10.40;;;7.80;10.40;;;;;;4980012;28;20488;-64
2022/12/11 09:40:41;;;;;;;14.43;10.23;;;7.90;9.90;;;;;;4979931;28;21220;-64
2022/12/11 09:43:22;;;;;;;14.07;10.23;;;8.00;9.40;;;;;;4980063;28;20468;-61
2022/12/11 09:45:51;;;;;;;16.40;10.97;;;8.00;9.40;;;;;;4983170;28;20467;-61
2022/12/11 09:48:22;;;;;;;13.53;9.27;;;8.10;9.20;;;;;;4980303;28;20476;-60
2022/12/11 09:50:51;;;;;;;13.83;9.37;;;8.10;9.80;;;;;;4982923;28;20495;-63
2022/12/11 09:53:25;;;;;;;13.63;9.43;;;8.10;9.00;;;;;;4980927;28;20457;-63
2022/12/11 09:55:56;;;;;;;13.97;9.30;;;8.10;9.00;;;;;;4980752;28;20463;-61
2022/12/11 09:58:28;;;;;;;14.23;9.87;;;8.20;9.10;;;;;;4980420;28;20476;-63
2022/12/11 10:01:03;;;;;;;14.20;9.33;;;8.30;9.10;;;;;;4981120;28;21165;-61
2022/12/11 10:04:00;;;;;;;13.80;9.70;;;8.40;9.10;;;;;;4987684;28;20470;-63
2022/12/11 10:06:32;;;;;;;13.13;9.33;;;8.80;9.00;;;;;;4989152;28;20456;-61
2022/12/11 10:09:08;;;;;;;12.67;8.73;;;9.10;8.60;;;;;;4983075;28;20468;-63
2022/12/11 10:11:56;;;;;;;16.20;9.50;;;9.50;7.70;;;;;;4985993;28;20465;-62
2022/12/11 10:14:31;;;;;;;13.97;9.70;;;9.50;7.20;;;;;;4983027;28;20460;-61
2022/12/11 10:17:05;;;;;;;12.90;9.70;;;9.30;7.00;;;;;;4984988;28;21200;-61
2022/12/11 10:19:33;;;;;;;13.77;9.07;;;9.10;7.30;;;;;;4983597;28;20967;-61
2022/12/11 10:22:01;;;;;;;15.60;11.00;;;8.90;7.20;;;;;;4983256;28;20464;-62
2022/12/11 10:24:33;;;;;;;14.10;10.30;;;8.60;7.60;;;;;;4988177;28;20468;-61
2022/12/11 10:27:08;;;;;;;17.10;11.90;;;8.30;7.70;;;;;;4987776;28;20856;-61
2022/12/11 10:29:35;;;;;;;17.10;12.53;;;7.90;7.90;;;;;;4983917;28;20543;-63
2022/12/11 10:32:06;;;;;;;13.47;9.97;;;7.70;8.50;;;;;;4985297;28;20484;-61
2022/12/11 10:34:36;;;;;;;16.87;10.33;;;7.90;8.90;;;;;;4989207;28;20471;-63
2022/12/11 10:37:03;;;;;;;12.77;8.70;;;8.60;8.40;;;;;;4988502;28;20491;-61
2022/12/11 10:39:30;;;;;;;16.40;9.57;;;9.30;7.40;;;;;;4985846;28;20464;-61
2022/12/11 10:41:57;;;;;;;12.57;9.43;;;10.00;6.30;;;;;;4988107;28;20991;-61
2022/12/11 10:44:26;;;;;;;13.33;10.47;;;10.70;5.10;;;;;;4988408;28;20468;-61
2022/12/11 10:47:04;;;;;;;13.73;8.87;;;11.30;4.40;;;;;;4987520;28;20989;-61
2022/12/11 10:49:33;;;;;;;15.60;9.87;;;11.90;3.30;;;;;;4985938;28;20460;-61
2022/12/11 10:52:01;;;;;;;12.17;9.10;;;12.60;2.50;;;;;;4985311;28;20672;-61
2022/12/11 10:54:36;;;;;;;12.50;9.00;;;13.30;1.80;;;;;;4986603;28;20961;-61
2022/12/11 10:57:05;;;;;;;14.87;10.70;;;13.80;1.00;;;;;;4977598;28;20488;-61
2022/12/11 10:59:38;;;;;;;11.60;9.27;;;14.20;1.00;;;;;;4986327;28;20467;-63
2022/12/11 11:02:18;;;;;;;11.60;8.47;;;14.40;1.00;;;;;;4981516;28;20480;-61
2022/12/11 11:04:45;;;;;;;11.80;8.40;;;14.20;1.00;;;;;;4988368;28;20488;-61
2022/12/11 11:07:14;;;;;;;11.67;7.83;;;13.70;1.00;;;;;;4985052;28;20487;-61
2022/12/11 11:09:41;;;;;;;12.83;8.33;;;13.80;1.00;;;;;;4984256;28;20483;-64
2022/12/11 11:12:19;;;;;;;12.03;8.70;;;14.50;1.00;;;;;;4985134;28;20468;-61
2022/12/11 11:14:46;;;;;;;10.70;8.13;;;15.00;1.00;;;;;;4980337;28;20471;-61
2022/12/11 11:17:17;;;;;;;11.57;8.77;;;15.20;1.00;;;;;;4987921;28;20480;-61
2022/12/11 11:19:47;;;;;;;11.60;8.60;;;15.30;1.00;;;;;;4978949;28;20465;-63
2022/12/11 11:22:17;;;;;;;11.90;8.33;;;15.30;1.00;;;;;;4983165;28;20461;-61
2022/12/11 11:24:47;;;;;;;13.47;10.70;;;14.80;1.00;;;;;;4983359;28;20464;-63
2022/12/11 11:27:31;;;;;;;15.20;11.23;;;14.40;1.00;;;;;;4987852;28;20481;-63
2022/12/11 11:29:59;;;;;;;17.80;14.40;;;13.50;1.00;;;;;;4987218;28;20472;-63
2022/12/11 11:32:33;;;;;;;13.40;10.00;;;12.60;1.00;;;;;;4988293;28;20469;-61
2022/12/11 11:35:15;;;;;;;14.83;10.50;;;11.80;1.00;;;;;;4982218;28;20938;-63
2022/12/11 11:37:45;;;;;;;13.03;10.73;;;11.50;2.10;;;;;;4984531;28;20496;-61
2022/12/11 11:40:18;;;;;;;18.00;13.00;;;11.00;2.20;;;;;;4989257;28;20468;-61
2022/12/11 11:42:52;;;;;;;14.07;9.87;;;10.70;3.40;;;;;;4984874;28;20476;-64
2022/12/11 11:45:24;;;;;;;13.63;8.80;;;11.00;3.20;;;;;;4986372;28;20468;-60
2022/12/11 11:47:59;;;;;;;12.80;9.00;;;11.90;3.10;;;;;;4989027;28;20469;-61
2022/12/11 11:50:31;;;;;;;10.97;8.00;;;12.70;1.60;;;;;;4985112;28;20455;-61
2022/12/11 11:53:04;;;;;;;13.47;8.80;;;13.40;1.00;;;;;;4980927;28;20465;-61
2022/12/11 11:55:41;;;;;;;12.20;8.20;;;13.40;1.00;;;;;;4987881;28;20487;-61
2022/12/11 11:58:14;;;;;;;13.30;9.50;;;13.40;1.00;;;;;;4988662;28;20492;-61
2022/12/11 12:00:41;;;;;;;13.63;9.20;;;13.00;1.00;;;;;;4981463;28;21015;-60
2022/12/11 12:03:13;;;;;;;13.27;9.17;;;12.60;1.00;;;;;;4986674;28;20452;-61
2022/12/11 12:05:49;;;;;;;12.50;9.17;;;11.90;1.00;;;;;;4988797;28;20452;-60
2022/12/11 12:08:26;;;;;;;14.80;9.23;;;11.20;1.70;;;;;;4986453;28;20992;-61
2022/12/11 12:10:59;;;;;;;13.60;8.93;;;10.50;2.80;;;;;;4983301;28;20880;-61
2022/12/11 12:13:38;;;;;;;13.87;9.00;;;10.00;3.80;;;;;;4983256;28;20460;-60
2022/12/11 12:16:10;;;;;;;17.53;11.90;;;9.80;4.60;;;;;;4982370;28;20449;-61
2022/12/11 12:18:46;;;;;;;15.13;11.20;;;9.50;5.20;;;;;;4983525;28;20488;-60
2022/12/11 12:21:23;;;;;;;13.73;9.83;;;9.30;5.90;;;;;;4980250;28;20471;-60
2022/12/11 12:24:02;;;;;;;13.93;9.13;;;8.90;6.40;;;;;;4984690;28;20493;-61
2022/12/11 12:26:31;;;;;;;15.93;10.33;;;8.70;6.80;;;;;;4988192;28;20460;-60
2022/12/11 12:29:09;;;;;;;13.00;8.87;;;8.50;7.10;;;;;;4988320;28;20805;-60
2022/12/11 12:31:47;;;;;;;13.37;10.20;;;8.40;7.60;;;;;;4983364;28;20859;-61
2022/12/11 12:34:29;;;;;;;14.63;10.10;;;8.20;8.10;;;;;;4978295;28;20519;-61
2022/12/11 12:37:05;;;;;;;13.60;9.97;;;8.00;8.40;;;;;;4981379;28;20488;-61
2022/12/11 12:39:38;;;;;;;17.87;11.77;;;7.80;8.70;;;;;;4981794;28;20468;-61
2022/12/11 12:42:13;;;;;;;23.53;11.27;;;7.50;8.90;;;;;;4983292;28;20464;-60
2022/12/11 12:44:50;;;;;;;15.23;9.70;;;7.30;9.40;;;;;;4983577;28;20460;-63
2022/12/11 12:47:18;;;;;;;16.03;10.27;;;7.00;10.30;;;;;;4982674;28;20472;-63
2022/12/11 12:49:48;;;;;;;14.57;9.80;;;6.80;10.30;;;;;;4985077;28;20464;-61
2022/12/11 12:52:19;;;;;;;16.63;10.30;;;6.60;10.90;;;;;;4987150;28;20999;-62
2022/12/11 12:57:32;;;;;;;15.30;10.00;;;6.10;11.40;;;;;;4986179;28;20849;-62
2022/12/11 12:59:59;;;;;;;17.20;11.53;;;5.90;11.90;;;;;;4986477;28;20469;-61
2022/12/11 13:02:26;;;;;;;13.07;9.20;;;5.70;12.40;;;;;;4983183;28;20993;-62